Time;durP1;ratioP1;P1;durP2;ratioP2;P2;SDS_P1;SDS_P2;PMS_P1;PMS_P2;Temp;Humidity;BMP_temperature;BMP_pressure;BME280_temperature;BME280_humidity;BME280_pressure;Samples;Min_cycle;Max_cycle;Signal;HPM_P1;HPM_P2
2022/01/09 00:01:37;;;;;;;0.85;0.28;;;5.30;99.90;;;;;;4985084;28;20039;-80
2022/01/09 00:04:03;;;;;;;1.00;0.22;;;5.30;99.90;;;;;;4986236;28;20042;-81
2022/01/09 00:06:29;;;;;;;1.73;0.40;;;5.30;99.90;;;;;;4984822;28;20217;-80
2022/01/09 00:08:55;;;;;;;0.50;0.20;;;5.30;99.90;;;;;;4990121;28;20053;-80
2022/01/09 00:11:26;;;;;;;0.32;0.15;;;5.30;99.90;;;;;;5005356;28;20201;-80
2022/01/09 00:13:55;;;;;;;1.13;0.30;;;5.30;99.90;;;;;;4987168;28;20085;-80
2022/01/09 00:16:22;;;;;;;1.40;0.30;;;5.20;99.90;;;;;;5003479;28;20046;-80
2022/01/09 00:18:49;;;;;;;1.02;0.40;;;5.20;99.90;;;;;;5003523;28;20060;-80
2022/01/09 00:21:15;;;;;;;0.98;0.25;;;5.20;99.90;;;;;;5005174;28;20038;-80
2022/01/09 00:27:29;;;;;;;0.50;0.20;;;5.20;99.90;;;;;;4973086;28;20151;-81
2022/01/09 00:29:54;;;;;;;0.65;0.25;;;5.20;99.90;;;;;;4986062;28;20046;-80
2022/01/09 00:32:20;;;;;;;0.20;0.10;;;5.20;99.90;;;;;;5004492;28;20057;-81
2022/01/09 00:34:46;;;;;;;0.35;0.10;;;5.20;99.90;;;;;;4985656;28;20026;-81
2022/01/09 00:37:12;;;;;;;0.60;0.17;;;5.10;99.90;;;;;;4987370;28;20034;-81
2022/01/09 00:39:37;;;;;;;0.60;0.30;;;5.10;99.90;;;;;;5004420;28;20052;-81
2022/01/09 00:42:03;;;;;;;0.98;0.30;;;5.00;99.90;;;;;;5004650;28;20038;-82
2022/01/09 00:44:29;;;;;;;1.02;0.25;;;5.10;99.90;;;;;;4987478;28;20065;-81
2022/01/09 00:46:56;;;;;;;0.50;0.20;;;5.00;99.90;;;;;;4986307;28;20041;-81
2022/01/09 00:49:23;;;;;;;1.02;0.30;;;5.00;99.90;;;;;;5004320;28;20018;-80
2022/01/09 00:51:48;;;;;;;1.20;0.40;;;5.10;99.90;;;;;;5001508;28;20026;-80
2022/01/09 00:54:14;;;;;;;1.55;0.65;;;5.10;99.90;;;;;;4984391;28;20375;-78
2022/01/09 00:56:40;;;;;;;1.20;0.40;;;5.10;99.90;;;;;;4984641;28;20094;-79
2022/01/09 00:59:06;;;;;;;1.98;0.90;;;5.10;99.90;;;;;;4984888;28;20038;-80
2022/01/09 01:01:31;;;;;;;0.80;0.30;;;5.10;99.90;;;;;;4975821;28;20110;-79
2022/01/09 01:03:57;;;;;;;0.60;0.20;;;5.10;99.90;;;;;;4984244;28;20031;-80
2022/01/09 01:06:23;;;;;;;0.43;0.10;;;5.00;99.90;;;;;;4985008;28;20190;-79
2022/01/09 01:08:48;;;;;;;0.57;0.20;;;5.00;99.90;;;;;;4984296;28;20301;-80
2022/01/09 01:11:14;;;;;;;0.47;0.10;;;5.10;99.90;;;;;;4985103;28;20333;-80
2022/01/09 01:13:40;;;;;;;0.30;0.10;;;5.20;99.90;;;;;;4984346;28;20313;-80
2022/01/09 01:16:06;;;;;;;0.30;0.10;;;5.20;99.90;;;;;;4999726;28;20034;-80
2022/01/09 01:18:32;;;;;;;1.52;0.20;;;5.10;99.90;;;;;;4987120;28;20300;-80
2022/01/09 01:20:57;;;;;;;0.38;0.10;;;5.10;99.90;;;;;;4986346;28;20051;-80
2022/01/09 01:23:23;;;;;;;0.55;0.10;;;5.10;99.90;;;;;;4986722;28;20093;-80
2022/01/09 01:25:51;;;;;;;0.70;0.20;;;5.00;99.90;;;;;;5003397;28;20396;-81
2022/01/09 01:28:18;;;;;;;0.40;0.10;;;5.10;99.90;;;;;;5003833;28;20030;-80
2022/01/09 01:30:44;;;;;;;0.22;0.10;;;5.10;99.90;;;;;;4986029;28;20034;-80
2022/01/09 01:33:10;;;;;;;0.28;0.10;;;5.10;99.90;;;;;;5004273;28;20089;-81
2022/01/09 01:35:36;;;;;;;0.32;0.10;;;5.10;99.90;;;;;;5003068;28;20312;-80
2022/01/09 01:38:01;;;;;;;0.88;0.20;;;5.10;99.90;;;;;;5003585;28;20037;-80
2022/01/09 01:40:27;;;;;;;0.93;0.20;;;5.20;99.90;;;;;;5003336;28;20038;-80
2022/01/09 01:42:53;;;;;;;0.22;0.10;;;5.20;99.90;;;;;;4985674;28;20377;-80
2022/01/09 01:45:19;;;;;;;1.45;0.08;;;5.20;99.90;;;;;;4986316;28;20065;-80
2022/01/09 01:47:45;;;;;;;0.17;0.08;;;5.20;99.90;;;;;;4986068;28;20049;-79
2022/01/09 01:50:14;;;;;;;2.30;0.10;;;5.20;99.90;;;;;;4970315;28;20106;-80
2022/01/09 01:52:44;;;;;;;0.17;0.05;;;5.30;99.90;;;;;;5003259;28;20133;-80
2022/01/09 01:55:12;;;;;;;1.05;0.10;;;5.10;99.90;;;;;;5003340;28;20026;-80
2022/01/09 01:57:40;;;;;;;0.10;0.00;;;5.30;99.90;;;;;;4969266;28;20048;-80
2022/01/09 02:00:10;;;;;;;0.43;0.13;;;5.30;99.90;;;;;;5003685;28;20026;-80
2022/01/09 02:02:36;;;;;;;0.20;0.00;;;5.30;99.90;;;;;;5003535;28;20080;-79
2022/01/09 02:05:04;;;;;;;0.52;0.00;;;5.30;99.90;;;;;;4985551;28;20305;-80
2022/01/09 02:07:30;;;;;;;;;;;5.30;99.90;;;;;;5003850;28;20030;-80
2022/01/09 02:09:56;;;;;;;0.10;0.00;;;5.40;99.90;;;;;;4985156;28;19920;-78
2022/01/09 02:12:22;;;;;;;0.00;0.00;;;5.40;99.90;;;;;;4969891;28;20030;-79
2022/01/09 02:14:48;;;;;;;0.20;0.00;;;5.50;99.90;;;;;;4985461;28;20042;-79
2022/01/09 02:17:19;;;;;;;0.05;0.00;;;5.40;99.90;;;;;;5002745;28;20019;-79
2022/01/09 02:19:55;;;;;;;0.00;0.00;;;5.40;99.90;;;;;;4985439;28;20186;-79
2022/01/09 02:22:24;;;;;;;0.30;0.10;;;5.40;99.90;;;;;;5003051;28;20030;-79
2022/01/09 02:24:51;;;;;;;0.40;0.10;;;5.60;99.90;;;;;;5002529;28;20034;-80
2022/01/09 02:27:17;;;;;;;0.08;0.00;;;5.50;99.90;;;;;;5002850;28;20088;-79
2022/01/09 02:29:47;;;;;;;0.15;0.00;;;5.50;99.90;;;;;;4985005;28;20118;-80
2022/01/09 02:32:16;;;;;;;0.55;0.13;;;5.40;99.90;;;;;;5003062;28;20034;-80
2022/01/09 02:34:46;;;;;;;0.35;0.08;;;5.50;99.90;;;;;;5002091;28;20026;-81
2022/01/09 02:37:12;;;;;;;0.30;0.10;;;5.50;99.90;;;;;;5002864;28;20351;-80
2022/01/09 02:39:37;;;;;;;0.63;0.10;;;5.50;99.90;;;;;;4981429;28;20027;-80
2022/01/09 02:42:04;;;;;;;0.20;0.10;;;5.40;99.90;;;;;;5002273;28;20026;-80
2022/01/09 02:45:22;;;;;;;0.10;0.00;;;5.40;99.90;;;;;;5002891;28;20078;-80
2022/01/09 02:47:48;;;;;;;;;;;5.30;99.90;;;;;;5003173;28;20038;-80
2022/01/09 02:53:02;;;;;;;0.10;0.00;;;5.20;99.90;;;;;;5001527;28;20079;-79
2022/01/09 02:55:29;;;;;;;0.45;0.10;;;5.10;99.90;;;;;;5002792;28;20036;-80
2022/01/09 02:57:59;;;;;;;0.10;0.00;;;5.00;99.90;;;;;;5002232;28;20034;-80
2022/01/09 03:00:28;;;;;;;0.95;0.03;;;4.90;99.90;;;;;;4997044;28;20035;-80
2022/01/09 03:02:54;;;;;;;0.47;0.10;;;5.00;99.90;;;;;;4965515;28;20038;-79
2022/01/09 03:05:21;;;;;;;0.40;0.00;;;5.00;99.90;;;;;;4983096;28;20039;-79
2022/01/09 03:07:47;;;;;;;0.63;0.10;;;5.00;99.90;;;;;;4982401;28;20228;-79
2022/01/09 03:10:15;;;;;;;0.00;0.00;;;5.00;99.90;;;;;;4982920;28;20102;-79
2022/01/09 03:12:42;;;;;;;0.25;0.05;;;5.10;99.90;;;;;;4965591;28;20414;-79
2022/01/09 03:15:08;;;;;;;0.85;0.10;;;5.30;99.90;;;;;;4982890;28;20058;-79
2022/01/09 03:17:35;;;;;;;0.30;0.10;;;5.30;99.90;;;;;;4983077;28;20019;-81
2022/01/09 03:20:02;;;;;;;0.70;0.10;;;5.40;99.90;;;;;;4992936;28;20018;-79
2022/01/09 03:22:27;;;;;;;0.30;0.10;;;5.40;99.90;;;;;;4985114;28;20045;-78
2022/01/09 03:24:53;;;;;;;0.15;0.00;;;5.40;99.90;;;;;;5002063;28;20094;-79
2022/01/09 03:27:19;;;;;;;0.95;0.10;;;5.50;99.90;;;;;;4985357;28;20105;-81
2022/01/09 03:29:45;;;;;;;0.20;0.03;;;5.50;99.90;;;;;;5001733;28;20092;-79
2022/01/09 03:32:10;;;;;;;0.57;0.10;;;5.50;99.90;;;;;;4985111;28;20027;-79
2022/01/09 03:34:36;;;;;;;0.30;0.10;;;5.50;99.90;;;;;;5002132;28;20050;-79
2022/01/09 03:37:03;;;;;;;0.28;0.10;;;5.50;99.90;;;;;;5001927;28;20299;-79
2022/01/09 03:39:29;;;;;;;0.73;0.10;;;5.50;99.90;;;;;;4984533;28;20018;-79
2022/01/09 03:41:57;;;;;;;0.17;0.00;;;5.50;99.90;;;;;;4984245;28;20134;-79
2022/01/09 03:44:23;;;;;;;0.10;0.00;;;5.40;99.90;;;;;;4984824;28;20354;-78
2022/01/09 03:46:48;;;;;;;0.80;0.10;;;5.50;99.90;;;;;;4984075;28;20041;-79
2022/01/09 03:49:14;;;;;;;0.40;0.10;;;5.30;99.90;;;;;;5002067;28;20034;-79
2022/01/09 03:51:43;;;;;;;0.15;0.05;;;5.30;99.90;;;;;;4984789;28;20312;-80
2022/01/09 03:54:09;;;;;;;0.40;0.10;;;5.30;99.90;;;;;;4968774;28;20328;-80
2022/01/09 03:56:35;;;;;;;0.08;0.03;;;5.20;99.90;;;;;;5001770;28;20094;-80
2022/01/09 03:59:00;;;;;;;0.30;0.10;;;5.30;99.90;;;;;;5001470;28;20048;-79
2022/01/09 04:01:27;;;;;;;0.25;0.05;;;5.30;99.90;;;;;;4984070;28;20030;-79
2022/01/09 04:03:52;;;;;;;0.38;0.10;;;5.30;99.90;;;;;;5002392;28;20049;-80
2022/01/09 04:06:19;;;;;;;0.65;0.10;;;5.30;99.90;;;;;;5005362;28;20077;-79
2022/01/09 04:08:45;;;;;;;0.30;0.10;;;5.30;99.90;;;;;;5004726;28;20248;-80
2022/01/09 04:11:15;;;;;;;1.08;0.10;;;5.30;99.90;;;;;;4987848;28;20029;-80
2022/01/09 04:13:41;;;;;;;1.35;0.10;;;5.20;99.90;;;;;;5005044;28;20085;-79
2022/01/09 04:16:07;;;;;;;0.68;0.10;;;5.20;99.90;;;;;;5004349;28;20034;-79
2022/01/09 04:18:33;;;;;;;0.47;0.10;;;5.10;99.90;;;;;;5005098;28;20056;-79
2022/01/09 04:20:59;;;;;;;0.30;0.10;;;5.10;99.90;;;;;;5004180;28;20033;-79
2022/01/09 04:23:25;;;;;;;0.10;0.00;;;5.10;99.90;;;;;;4987650;28;20030;-79
2022/01/09 04:25:51;;;;;;;0.25;0.10;;;5.10;99.90;;;;;;4987373;28;20038;-79
2022/01/09 04:28:18;;;;;;;0.43;0.10;;;5.10;99.90;;;;;;5004793;28;20037;-79
2022/01/09 04:30:44;;;;;;;0.30;0.10;;;5.20;99.90;;;;;;5004736;28;20026;-78
2022/01/09 04:33:10;;;;;;;0.20;0.10;;;5.20;99.90;;;;;;4986910;28;20044;-79
2022/01/09 04:35:37;;;;;;;0.20;0.10;;;5.20;99.90;;;;;;5004756;28;20022;-79
2022/01/09 04:38:03;;;;;;;0.30;0.10;;;5.20;99.90;;;;;;4986630;28;20030;-78
2022/01/09 04:40:29;;;;;;;0.40;0.10;;;5.20;99.90;;;;;;5004717;28;20038;-79
2022/01/09 04:42:59;;;;;;;0.20;0.00;;;5.20;99.90;;;;;;5003423;28;20178;-79
2022/01/09 04:45:26;;;;;;;1.48;0.10;;;5.10;99.90;;;;;;4987168;28;20033;-79
2022/01/09 04:47:54;;;;;;;3.00;0.08;;;5.10;99.90;;;;;;4986627;28;20199;-79
2022/01/09 04:50:31;;;;;;;1.33;0.10;;;5.00;99.90;;;;;;4987300;28;20153;-79
2022/01/09 04:53:04;;;;;;;0.00;0.00;;;4.90;99.90;;;;;;4986885;28;20085;-79
2022/01/09 04:55:31;;;;;;;0.90;0.00;;;4.90;99.90;;;;;;5004502;28;20042;-79
2022/01/09 04:57:57;;;;;;;0.45;0.08;;;5.00;99.90;;;;;;4987055;28;20023;-79
2022/01/09 05:00:23;;;;;;;0.40;0.10;;;4.90;99.90;;;;;;5004188;28;20093;-81
2022/01/09 05:02:49;;;;;;;0.10;0.00;;;4.70;99.90;;;;;;5003525;28;20026;-81
2022/01/09 05:05:16;;;;;;;0.65;0.10;;;4.50;99.90;;;;;;5004470;28;20037;-81
2022/01/09 05:08:00;;;;;;;0.20;0.10;;;4.40;99.90;;;;;;5004312;28;20231;-81
2022/01/09 05:10:26;;;;;;;0.00;0.00;;;4.40;99.90;;;;;;5002452;28;21081;-79
2022/01/09 05:12:52;;;;;;;0.10;0.00;;;4.40;99.90;;;;;;4986418;28;20043;-80
2022/01/09 05:15:19;;;;;;;0.50;0.10;;;4.40;99.90;;;;;;5003772;28;20262;-79
2022/01/09 05:17:46;;;;;;;0.15;0.00;;;4.30;99.90;;;;;;5004221;28;20078;-79
2022/01/09 05:20:12;;;;;;;1.45;0.10;;;4.30;99.90;;;;;;4986139;28;20106;-79
2022/01/09 05:22:38;;;;;;;0.40;0.00;;;4.30;99.90;;;;;;5004278;28;20224;-79
2022/01/09 05:25:06;;;;;;;0.40;0.08;;;4.30;99.90;;;;;;5003007;28;20026;-79
2022/01/09 05:27:33;;;;;;;0.10;0.00;;;4.30;99.90;;;;;;4986469;28;20089;-79
2022/01/09 05:30:00;;;;;;;0.00;0.00;;;4.30;99.90;;;;;;4986597;28;20061;-79
2022/01/09 05:32:25;;;;;;;1.55;0.00;;;4.30;99.90;;;;;;4986557;28;20093;-80
2022/01/09 05:34:51;;;;;;;0.00;0.00;;;4.20;99.90;;;;;;4986210;28;20069;-79
2022/01/09 05:37:17;;;;;;;0.20;0.10;;;4.20;99.90;;;;;;5004144;28;20034;-80
2022/01/09 05:39:44;;;;;;;0.10;0.00;;;4.20;99.90;;;;;;5003599;28;20243;-79
2022/01/09 05:42:13;;;;;;;0.00;0.00;;;4.20;99.90;;;;;;5003385;28;20135;-79
2022/01/09 05:44:38;;;;;;;0.20;0.03;;;4.10;99.90;;;;;;5003105;28;20041;-80
2022/01/09 05:47:05;;;;;;;0.00;0.00;;;4.10;99.90;;;;;;4985980;28;20026;-80
2022/01/09 05:49:31;;;;;;;1.13;0.10;;;4.00;99.90;;;;;;4986491;28;20030;-80
2022/01/09 05:51:56;;;;;;;0.20;0.00;;;4.00;99.90;;;;;;5003155;28;20045;-79
2022/01/09 05:54:22;;;;;;;0.22;0.10;;;4.00;99.90;;;;;;5003678;28;20033;-80
2022/01/09 05:56:51;;;;;;;0.32;0.05;;;4.00;99.90;;;;;;4986323;28;20030;-80
2022/01/09 05:59:18;;;;;;;0.30;0.10;;;4.00;99.90;;;;;;5003553;28;20026;-80
2022/01/09 06:01:44;;;;;;;0.20;0.00;;;4.00;99.90;;;;;;4984170;28;20102;-80
2022/01/09 06:04:09;;;;;;;0.25;0.08;;;3.90;99.90;;;;;;4985354;28;20041;-80
2022/01/09 06:06:35;;;;;;;0.30;0.10;;;3.90;99.90;;;;;;4984086;28;20185;-80
2022/01/09 06:09:01;;;;;;;0.95;0.20;;;3.90;99.90;;;;;;4985668;28;20151;-80
2022/01/09 06:11:27;;;;;;;0.43;0.10;;;3.80;99.90;;;;;;4985452;28;20050;-80
2022/01/09 06:13:53;;;;;;;0.63;0.10;;;3.80;99.90;;;;;;5002503;28;20034;-81
2022/01/09 06:16:19;;;;;;;0.85;0.30;;;3.80;99.90;;;;;;4985268;28;20039;-80
2022/01/09 06:18:45;;;;;;;0.30;0.10;;;3.90;99.90;;;;;;4985891;28;20065;-80
2022/01/09 06:21:11;;;;;;;2.67;0.10;;;3.80;99.90;;;;;;5002742;28;20094;-80
2022/01/09 06:23:37;;;;;;;1.27;0.30;;;3.80;99.90;;;;;;5003189;28;20049;-81
2022/01/09 06:26:03;;;;;;;0.47;0.10;;;3.70;99.90;;;;;;4979846;28;20019;-80
2022/01/09 06:28:28;;;;;;;1.48;0.10;;;3.70;99.90;;;;;;5002828;28;20073;-80
2022/01/09 06:30:54;;;;;;;1.05;0.20;;;3.80;99.90;;;;;;4984478;28;20066;-77
2022/01/09 06:33:20;;;;;;;2.30;0.40;;;3.80;99.90;;;;;;4985379;28;20201;-79
2022/01/09 06:35:46;;;;;;;0.40;0.20;;;3.80;99.90;;;;;;4985338;28;20029;-79
2022/01/09 06:38:12;;;;;;;1.42;0.20;;;3.80;99.90;;;;;;5002512;28;20081;-80
2022/01/09 06:40:38;;;;;;;2.08;0.30;;;3.80;99.90;;;;;;4985356;28;20033;-80
2022/01/09 06:43:04;;;;;;;0.90;0.20;;;3.80;99.90;;;;;;5002154;28;20034;-80
2022/01/09 06:45:30;;;;;;;1.33;1.10;;;3.80;99.90;;;;;;5001854;28;20049;-80
2022/01/09 06:47:57;;;;;;;1.60;0.17;;;3.80;99.90;;;;;;4983567;28;20297;-79
2022/01/09 06:50:25;;;;;;;2.55;0.20;;;3.80;99.90;;;;;;4985416;28;20282;-79
2022/01/09 06:52:51;;;;;;;2.33;0.40;;;3.80;99.90;;;;;;5002718;28;20038;-79
2022/01/09 06:55:17;;;;;;;0.73;0.20;;;3.80;99.90;;;;;;5002578;28;20029;-80
2022/01/09 06:57:43;;;;;;;1.02;0.40;;;3.80;99.90;;;;;;4985412;28;20054;-79
2022/01/09 07:00:11;;;;;;;3.03;0.25;;;3.80;99.90;;;;;;5001649;28;20145;-80
2022/01/09 07:02:41;;;;;;;1.55;0.20;;;3.70;99.90;;;;;;5002904;28;20037;-79
2022/01/09 07:05:33;;;;;;;2.10;0.10;;;3.70;99.90;;;;;;5002580;28;20097;-79
2022/01/09 07:08:24;;;;;;;1.10;0.30;;;3.70;99.90;;;;;;4997040;28;20033;-81
2022/01/09 07:11:14;;;;;;;2.15;0.32;;;3.70;99.90;;;;;;4987043;28;20037;-79
2022/01/09 07:14:06;;;;;;;1.67;0.47;;;3.60;99.90;;;;;;4987207;28;20045;-81
2022/01/09 07:16:56;;;;;;;0.98;0.10;;;3.60;99.90;;;;;;5001533;28;20092;-80
2022/01/09 07:19:47;;;;;;;1.25;0.15;;;3.50;99.90;;;;;;4988687;28;20054;-80
2022/01/09 07:22:39;;;;;;;1.23;0.30;;;3.50;99.90;;;;;;5002335;28;20088;-81
2022/01/09 07:26:01;;;;;;;0.98;0.25;;;3.50;99.90;;;;;;4968945;28;20057;-79
2022/01/09 07:32:15;;;;;;;1.08;0.20;;;3.50;99.90;;;;;;5001976;28;20154;-82
2022/01/09 07:34:40;;;;;;;1.75;0.38;;;3.60;99.90;;;;;;4984822;28;20344;-82
2022/01/09 07:37:06;;;;;;;1.80;0.40;;;3.50;99.90;;;;;;5002015;28;20097;-81
2022/01/09 07:39:32;;;;;;;1.95;0.40;;;3.60;99.90;;;;;;4988539;28;20026;-81
2022/01/09 07:41:59;;;;;;;2.78;0.93;;;3.60;99.90;;;;;;4988509;28;20077;-82
2022/01/09 07:44:26;;;;;;;1.73;0.40;;;3.60;99.90;;;;;;4988660;28;20048;-81
2022/01/09 07:46:51;;;;;;;4.63;0.75;;;3.60;99.90;;;;;;5005235;28;20038;-80
2022/01/09 07:49:17;;;;;;;5.07;0.80;;;3.60;99.90;;;;;;5000728;28;20232;-81
2022/01/09 07:51:44;;;;;;;7.18;0.82;;;3.60;99.90;;;;;;4988648;28;20034;-80
2022/01/09 07:54:10;;;;;;;5.03;1.00;;;3.70;99.90;;;;;;4972124;28;20034;-80
2022/01/09 07:56:36;;;;;;;4.13;0.93;;;3.70;99.90;;;;;;4988347;28;20392;-80
2022/01/09 07:59:01;;;;;;;4.10;0.80;;;3.70;99.90;;;;;;4988173;28;20101;-80
2022/01/09 08:01:27;;;;;;;4.30;0.80;;;3.80;99.90;;;;;;4999568;28;20042;-80
2022/01/09 08:03:53;;;;;;;5.35;0.85;;;3.90;99.90;;;;;;4973235;28;20066;-79
2022/01/09 08:06:19;;;;;;;4.25;0.82;;;3.90;99.90;;;;;;4970245;28;20069;-79
2022/01/09 08:08:45;;;;;;;2.55;1.25;;;4.00;99.90;;;;;;4988456;28;20090;-79
2022/01/09 08:11:10;;;;;;;6.13;0.90;;;4.00;99.90;;;;;;4987661;28;20066;-80
2022/01/09 08:13:36;;;;;;;7.28;0.93;;;4.00;99.90;;;;;;4986121;28;20052;-79
2022/01/09 08:16:02;;;;;;;3.40;0.70;;;4.00;99.90;;;;;;4987457;28;20046;-82
2022/01/09 08:18:31;;;;;;;7.22;0.93;;;4.00;99.90;;;;;;4988253;28;20018;-81
2022/01/09 08:20:56;;;;;;;4.72;0.95;;;4.00;99.90;;;;;;4988182;28;20027;-82
2022/01/09 08:23:22;;;;;;;6.88;0.85;;;4.10;99.90;;;;;;4987646;28;20034;-82
2022/01/09 08:25:48;;;;;;;4.05;0.98;;;4.10;99.90;;;;;;4988010;28;20273;-81
2022/01/09 08:28:14;;;;;;;8.48;0.90;;;4.10;99.90;;;;;;5005065;28;20045;-82
2022/01/09 08:30:42;;;;;;;9.55;1.40;;;4.10;99.90;;;;;;4987786;28;20064;-81
2022/01/09 08:33:08;;;;;;;;;;;4.10;99.90;;;;;;4973357;28;20034;-83
2022/01/09 08:35:33;;;;;;;6.47;1.15;;;4.20;99.90;;;;;;4989216;28;19976;-83
2022/01/09 08:37:59;;;;;;;6.15;1.00;;;4.10;99.90;;;;;;4988462;28;20030;-80
2022/01/09 08:40:25;;;;;;;7.78;1.33;;;4.20;99.90;;;;;;5005596;28;20309;-82
2022/01/09 08:42:53;;;;;;;5.32;0.80;;;4.20;99.90;;;;;;4988345;28;20038;-80
2022/01/09 08:45:20;;;;;;;5.03;1.17;;;4.20;99.90;;;;;;4987607;28;20018;-80
2022/01/09 08:47:46;;;;;;;3.78;0.70;;;4.30;99.90;;;;;;4989275;28;20034;-84
2022/01/09 08:50:14;;;;;;;5.88;1.20;;;4.30;99.90;;;;;;4971649;28;20029;-83
2022/01/09 08:52:39;;;;;;;4.53;0.98;;;4.40;99.90;;;;;;4988275;28;20027;-81
2022/01/09 08:55:07;;;;;;;6.35;1.45;;;4.50;99.90;;;;;;4987910;28;20034;-82
2022/01/09 08:57:32;;;;;;;4.57;0.77;;;4.60;99.90;;;;;;4989233;28;20271;-82
2022/01/09 08:59:58;;;;;;;9.40;0.98;;;4.60;99.90;;;;;;4988380;28;20026;-83
2022/01/09 09:02:24;;;;;;;4.00;0.98;;;4.70;99.90;;;;;;5005039;28;20040;-83
2022/01/09 09:04:50;;;;;;;6.80;1.20;;;4.80;99.90;;;;;;4989248;28;20097;-83
2022/01/09 09:07:18;;;;;;;4.95;1.00;;;4.80;99.90;;;;;;4989112;28;20031;-85
2022/01/09 09:09:46;;;;;;;5.53;1.02;;;4.90;99.90;;;;;;5005031;28;20034;-82
2022/01/09 09:12:11;;;;;;;7.20;0.90;;;5.00;99.90;;;;;;4944073;29;20024;-83
2022/01/09 09:14:37;;;;;;;8.00;1.10;;;5.00;99.90;;;;;;4944590;29;20115;-81
2022/01/09 09:17:03;;;;;;;4.90;1.15;;;5.10;99.90;;;;;;4928053;29;20039;-81
2022/01/09 09:19:31;;;;;;;4.65;1.15;;;5.10;99.90;;;;;;4944464;29;20230;-80
2022/01/09 09:21:57;;;;;;;8.50;1.02;;;5.20;99.90;;;;;;4926744;29;20283;-84
2022/01/09 09:24:23;;;;;;;3.92;0.98;;;5.20;99.90;;;;;;4912418;29;20314;-79
2022/01/09 09:26:49;;;;;;;6.38;1.30;;;5.10;99.90;;;;;;4944719;29;20043;-80
2022/01/09 09:29:15;;;;;;;4.72;1.00;;;5.10;99.90;;;;;;4913078;29;20031;-82
2022/01/09 09:31:40;;;;;;;5.95;1.10;;;5.20;99.90;;;;;;4912234;29;20063;-82
2022/01/09 09:38:09;;;;;;;8.13;1.00;;;5.10;99.90;;;;;;4906999;29;20034;-81
2022/01/09 09:40:35;;;;;;;10.55;1.90;;;5.10;99.90;;;;;;4912777;29;20106;-84
2022/01/09 09:43:02;;;;;;;7.18;1.75;;;5.10;99.90;;;;;;4941229;28;20092;-81
2022/01/09 09:45:28;;;;;;;7.82;1.17;;;5.00;99.90;;;;;;4985390;28;20045;-82
2022/01/09 09:47:54;;;;;;;7.93;1.33;;;5.10;99.90;;;;;;4986652;28;20030;-82
2022/01/09 09:50:21;;;;;;;6.80;1.05;;;5.00;99.90;;;;;;4986222;28;20101;-83
2022/01/09 09:52:48;;;;;;;9.30;1.95;;;5.00;99.90;;;;;;4986206;28;20233;-81
2022/01/09 09:55:15;;;;;;;3.90;1.00;;;4.90;99.90;;;;;;4969558;28;20031;-82
2022/01/09 09:57:42;;;;;;;8.68;1.52;;;4.90;99.90;;;;;;5003342;28;20034;-80
2022/01/09 10:00:11;;;;;;;6.68;0.93;;;4.90;99.90;;;;;;5001951;28;20026;-82
2022/01/09 10:02:51;;;;;;;7.53;1.77;;;5.00;99.90;;;;;;4999137;28;20022;-81
2022/01/09 10:05:23;;;;;;;7.82;1.13;;;5.20;99.90;;;;;;4985221;28;20026;-80
2022/01/09 10:08:05;;;;;;;8.50;1.38;;;5.50;99.90;;;;;;5002941;28;20217;-80
2022/01/09 10:10:38;;;;;;;5.90;1.00;;;5.70;99.90;;;;;;5002556;28;20308;-81
2022/01/09 10:13:13;;;;;;;4.22;0.88;;;5.70;99.90;;;;;;5003175;28;20054;-81
2022/01/09 10:15:59;;;;;;;5.15;1.02;;;5.90;99.90;;;;;;4985127;28;20042;-80
2022/01/09 10:18:46;;;;;;;6.22;1.05;;;5.80;99.90;;;;;;4984462;28;20038;-82
2022/01/09 10:21:20;;;;;;;5.97;1.17;;;6.00;99.90;;;;;;4969472;28;20022;-81
2022/01/09 10:24:11;;;;;;;7.53;1.05;;;5.80;99.90;;;;;;4993936;28;20026;-81
2022/01/09 10:26:57;;;;;;;6.82;1.30;;;5.50;99.90;;;;;;4991782;28;20030;-81
2022/01/09 10:29:33;;;;;;;7.65;1.60;;;5.30;99.90;;;;;;4982788;28;20332;-81
2022/01/09 10:32:02;;;;;;;9.75;2.25;;;5.20;99.90;;;;;;4965720;28;20329;-81
2022/01/09 10:34:28;;;;;;;8.85;1.27;;;5.20;99.90;;;;;;4972987;28;20030;-79
2022/01/09 10:36:56;;;;;;;7.18;1.25;;;5.30;99.90;;;;;;5003069;28;20037;-82
2022/01/09 10:39:25;;;;;;;;;;;5.60;99.90;;;;;;5002687;28;20030;-79
2022/01/09 10:42:04;;;;;;;9.05;1.13;;;5.80;99.90;;;;;;5002288;28;19901;-82
2022/01/09 10:44:35;;;;;;;7.80;1.33;;;5.80;99.90;;;;;;4990635;28;20034;-80
2022/01/09 10:47:12;;;;;;;7.72;1.20;;;5.70;99.90;;;;;;5001924;28;20058;-81
2022/01/09 10:49:54;;;;;;;5.97;1.63;;;5.50;99.90;;;;;;4985276;28;20256;-80
2022/01/09 10:52:29;;;;;;;5.50;1.27;;;5.30;99.90;;;;;;5002116;28;20485;-81
2022/01/09 10:54:57;;;;;;;5.57;1.20;;;5.30;99.90;;;;;;5002639;28;20053;-81
2022/01/09 10:57:25;;;;;;;8.13;1.27;;;5.40;99.90;;;;;;5002218;28;20018;-81
2022/01/09 10:59:52;;;;;;;4.72;1.30;;;5.40;99.90;;;;;;4969166;28;20197;-81
2022/01/09 11:02:22;;;;;;;6.13;1.35;;;5.40;99.90;;;;;;4984343;28;20069;-81
2022/01/09 11:04:49;;;;;;;5.03;1.15;;;5.40;99.90;;;;;;4980582;28;20035;-82
2022/01/09 11:07:15;;;;;;;5.60;1.70;;;5.10;99.90;;;;;;4982948;28;20070;-81
2022/01/09 11:09:48;;;;;;;4.10;0.98;;;5.40;99.90;;;;;;4988839;28;20150;-80
2022/01/09 11:12:26;;;;;;;5.60;1.17;;;6.20;99.90;;;;;;5002724;28;20058;-82
2022/01/09 11:14:57;;;;;;;6.45;1.20;;;6.70;99.90;;;;;;4988737;28;20042;-79
2022/01/09 11:17:28;;;;;;;4.07;1.13;;;7.50;99.90;;;;;;4987834;28;20061;-81
2022/01/09 11:19:57;;;;;;;6.45;1.10;;;8.00;99.90;;;;;;4989083;28;20033;-81
2022/01/09 11:22:23;;;;;;;5.07;1.65;;;8.40;99.90;;;;;;4988792;28;20027;-81
2022/01/09 11:24:55;;;;;;;6.95;1.20;;;7.80;99.90;;;;;;4988086;28;20105;-81
2022/01/09 11:27:56;;;;;;;4.88;1.15;;;7.50;99.90;;;;;;5006138;28;20061;-81
2022/01/09 11:30:33;;;;;;;4.72;1.23;;;7.10;99.90;;;;;;4988258;28;20089;-78
2022/01/09 11:33:14;;;;;;;6.80;1.08;;;7.10;99.90;;;;;;5007011;28;20034;-77
2022/01/09 11:36:09;;;;;;;7.68;1.15;;;6.70;99.90;;;;;;4989649;28;20325;-78
2022/01/09 11:38:47;;;;;;;3.13;0.90;;;6.60;99.90;;;;;;4988986;28;20102;-78
2022/01/09 11:41:15;;;;;;;;;;;6.70;99.90;;;;;;4973146;28;20030;-79
2022/01/09 11:44:08;;;;;;;2.95;0.70;;;6.70;99.90;;;;;;4988865;28;19914;-78
2022/01/09 11:47:03;;;;;;;6.40;0.98;;;6.90;99.90;;;;;;4969804;28;20038;-78
2022/01/09 11:49:58;;;;;;;7.47;1.05;;;7.50;99.90;;;;;;5004092;28;20321;-78
2022/01/09 11:52:27;;;;;;;5.13;1.27;;;8.40;99.90;;;;;;4971743;28;20022;-78
2022/01/09 11:55:00;;;;;;;4.05;1.10;;;9.50;99.90;;;;;;4988658;28;20041;-79
2022/01/09 11:57:48;;;;;;;3.42;0.80;;;10.70;99.90;;;;;;4987906;28;20330;-78
2022/01/09 12:00:31;;;;;;;3.40;0.80;;;13.00;99.90;;;;;;4971849;28;20026;-80
2022/01/09 12:03:21;;;;;;;3.72;1.00;;;13.00;99.90;;;;;;4988592;28;20632;-78
2022/01/09 12:06:01;;;;;;;2.42;0.80;;;13.50;99.90;;;;;;5004970;28;20026;-79
2022/01/09 12:08:27;;;;;;;4.93;1.20;;;12.60;99.90;;;;;;4971543;28;20027;-79
2022/01/09 12:10:53;;;;;;;3.80;0.90;;;11.80;99.90;;;;;;4984112;28;20022;-78
2022/01/09 12:13:40;;;;;;;5.53;1.40;;;10.50;99.90;;;;;;4987190;28;20336;-80
2022/01/09 12:16:07;;;;;;;4.43;1.00;;;9.70;99.90;;;;;;4987446;28;20046;-78
2022/01/09 12:18:43;;;;;;;3.05;1.02;;;10.20;99.90;;;;;;4989761;28;20221;-78
2022/01/09 12:21:31;;;;;;;5.40;1.02;;;10.20;99.90;;;;;;4987737;28;20064;-81
2022/01/09 12:24:34;;;;;;;3.75;0.88;;;9.40;99.90;;;;;;4986952;28;20086;-79
2022/01/09 12:27:35;;;;;;;6.20;0.90;;;9.00;99.90;;;;;;5003145;28;20034;-79
2022/01/09 12:30:08;;;;;;;4.70;0.98;;;9.70;99.90;;;;;;4952934;28;20026;-79
2022/01/09 12:32:40;;;;;;;5.50;1.73;;;11.10;99.90;;;;;;4998396;28;20061;-78
2022/01/09 12:35:11;;;;;;;3.83;1.00;;;11.30;99.90;;;;;;5005415;28;20035;-80
2022/01/09 12:37:43;;;;;;;5.05;0.95;;;10.30;99.90;;;;;;4987546;28;20216;-79
2022/01/09 12:40:10;;;;;;;5.60;1.17;;;9.50;99.90;;;;;;4987809;28;20033;-80
2022/01/09 12:42:36;;;;;;;6.65;1.42;;;8.70;99.90;;;;;;4987225;28;20141;-78
2022/01/09 12:45:02;;;;;;;5.40;1.15;;;8.70;99.90;;;;;;4970932;28;20018;-79
2022/01/09 12:47:38;;;;;;;3.42;0.95;;;8.60;99.90;;;;;;4987073;28;20026;-80
2022/01/09 12:50:04;;;;;;;3.58;1.02;;;8.50;99.90;;;;;;5002311;28;20031;-77
2022/01/09 12:52:52;;;;;;;3.28;0.88;;;9.00;99.90;;;;;;5004300;28;20025;-78
2022/01/09 12:55:18;;;;;;;3.20;0.80;;;8.30;99.90;;;;;;4979884;28;20038;-79
2022/01/09 12:57:55;;;;;;;5.80;1.10;;;8.30;99.90;;;;;;4995263;28;20213;-80
2022/01/09 13:00:28;;;;;;;4.95;0.90;;;9.40;99.90;;;;;;4959074;28;20214;-80
2022/01/09 13:03:21;;;;;;;3.60;0.82;;;9.60;99.90;;;;;;4981796;28;20072;-79
2022/01/09 13:09:28;;;;;;;6.78;0.98;;;8.20;99.90;;;;;;4999473;28;20038;-78
2022/01/09 13:12:22;;;;;;;4.80;0.73;;;7.80;99.90;;;;;;4989838;28;20076;-79
2022/01/09 13:15:12;;;;;;;7.57;1.00;;;7.60;99.90;;;;;;4987077;28;20042;-79
2022/01/09 13:18:05;;;;;;;5.35;0.90;;;7.20;99.90;;;;;;5002062;28;20072;-78
2022/01/09 13:21:16;;;;;;;5.50;1.10;;;7.10;99.90;;;;;;4990366;28;20407;-80
2022/01/09 13:24:12;;;;;;;2.78;0.85;;;7.10;99.90;;;;;;5004189;28;20081;-78
2022/01/09 13:27:04;;;;;;;7.50;1.80;;;6.80;99.90;;;;;;4997573;28;20030;-79
2022/01/09 13:29:32;;;;;;;6.03;0.98;;;6.50;99.90;;;;;;4983023;28;20038;-79
2022/01/09 13:32:00;;;;;;;4.70;1.08;;;6.30;99.90;;;;;;4985611;28;20049;-79